createdAt,value
2022-12-08T00:02:21.873Z,86.70
2022-12-08T00:05:41.571Z,86.70
2022-12-08T00:09:00.352Z,86.80
2022-12-08T00:12:05.923Z,86.80
2022-12-08T00:15:10.133Z,86.70
2022-12-08T00:18:13.882Z,86.80
2022-12-08T00:21:17.433Z,86.90
2022-12-08T00:24:24.180Z,86.90
2022-12-08T00:27:27.906Z,86.70
2022-12-08T00:30:31.431Z,87.40
2022-12-08T00:33:35.197Z,86.80
2022-12-08T00:36:38.680Z,86.70
2022-12-08T00:39:45.091Z,86.80
2022-12-08T00:42:48.858Z,86.70
2022-12-08T00:45:52.474Z,86.80
2022-12-08T00:48:56.325Z,86.90
2022-12-08T00:52:00.114Z,86.80
2022-12-08T00:55:06.196Z,86.90
2022-12-08T00:58:09.914Z,86.90
2022-12-08T01:01:13.983Z,86.90
2022-12-08T01:04:20.053Z,86.90
2022-12-08T01:07:24.086Z,86.90
2022-12-08T01:10:29.784Z,87.00
2022-12-08T01:13:33.704Z,87.00
2022-12-08T01:16:40.528Z,87.10
2022-12-08T01:19:44.390Z,87.20
2022-12-08T01:22:48.112Z,87.10
2022-12-08T01:25:53.794Z,87.20
2022-12-08T01:28:57.798Z,87.10
2022-12-08T01:32:01.601Z,87.10
2022-12-08T01:35:05.218Z,87.20
2022-12-08T01:38:08.921Z,87.20
2022-12-08T01:41:16.622Z,87.00
2022-12-08T01:44:50.634Z,87.10
2022-12-08T01:47:57.938Z,87.20
2022-12-08T01:51:01.980Z,87.20
2022-12-08T01:54:08.346Z,87.20
2022-12-08T01:57:18.384Z,87.20
2022-12-08T02:00:24.434Z,87.20
2022-12-08T02:03:32.104Z,87.20
2022-12-08T02:06:40.015Z,87.30
2022-12-08T02:09:43.915Z,87.30
2022-12-08T02:12:51.488Z,87.30
2022-12-08T02:16:04.750Z,87.40
2022-12-08T02:19:38.220Z,87.40
2022-12-08T02:22:49.077Z,87.40
2022-12-08T02:26:37.782Z,87.40
2022-12-08T02:30:04.149Z,87.40
2022-12-08T02:33:34.985Z,87.40
2022-12-08T02:36:48.542Z,87.40
2022-12-08T02:39:59.589Z,87.40
2022-12-08T02:43:08.060Z,87.50
2022-12-08T02:46:16.707Z,87.40
2022-12-08T02:49:20.463Z,87.40
2022-12-08T02:52:42.060Z,87.40
2022-12-08T02:55:58.129Z,87.40
2022-12-08T02:59:20.619Z,87.40
2022-12-08T03:02:37.289Z,87.50
2022-12-08T03:05:57.691Z,87.50
2022-12-08T03:09:09.932Z,87.50
2022-12-08T03:12:20.570Z,87.60
2022-12-08T03:15:24.615Z,87.50
2022-12-08T03:18:32.996Z,87.50
2022-12-08T03:21:37.688Z,87.50
2022-12-08T03:24:46.445Z,87.50
2022-12-08T03:27:51.945Z,87.60
2022-12-08T03:30:59.547Z,87.50
2022-12-08T03:34:06.399Z,87.60
2022-12-08T03:37:10.297Z,87.60
2022-12-08T03:40:18.931Z,87.60
2022-12-08T03:43:22.671Z,87.60
2022-12-08T03:49:31.479Z,87.60
2022-12-08T03:52:35.224Z,87.60
2022-12-08T03:55:41.148Z,87.60
2022-12-08T03:58:45.457Z,87.60
2022-12-08T04:01:49.372Z,87.60
2022-12-08T04:04:53.146Z,87.70
2022-12-08T04:07:58.321Z,87.70
2022-12-08T04:11:05.655Z,87.70
2022-12-08T04:14:09.468Z,87.60
2022-12-08T04:17:12.943Z,87.70
2022-12-08T04:20:16.711Z,87.70
2022-12-08T04:23:20.625Z,87.60
2022-12-08T04:26:26.357Z,87.70
2022-12-08T04:29:30.106Z,88.30
2022-12-08T04:32:33.800Z,87.80
2022-12-08T04:35:37.758Z,87.80
2022-12-08T04:38:41.724Z,87.80
2022-12-08T04:41:47.395Z,87.80
2022-12-08T04:44:51.201Z,87.80
2022-12-08T04:47:54.987Z,87.90
2022-12-08T04:50:58.683Z,87.80
2022-12-08T04:54:02.629Z,87.80
2022-12-08T04:57:08.359Z,87.70
2022-12-08T05:00:13.661Z,87.80
2022-12-08T05:03:17.994Z,87.80
2022-12-08T05:06:21.853Z,87.80
2022-12-08T05:09:25.356Z,87.70
2022-12-08T05:12:31.182Z,87.80
2022-12-08T05:15:35.177Z,87.60
2022-12-08T05:18:39.528Z,87.70
2022-12-08T05:21:43.509Z,87.70
2022-12-08T05:24:48.013Z,87.80
2022-12-08T05:28:06.143Z,87.80
2022-12-08T05:31:19.358Z,87.80
2022-12-08T05:34:23.144Z,87.90
2022-12-08T05:37:27.007Z,87.90
2022-12-08T05:40:30.784Z,87.90
2022-12-08T05:43:36.876Z,87.90
2022-12-08T05:46:40.771Z,87.80
2022-12-08T05:49:44.363Z,87.80
2022-12-08T05:52:48.177Z,87.90
2022-12-08T05:55:51.935Z,87.80
2022-12-08T05:58:57.640Z,87.90
2022-12-08T06:02:01.585Z,87.90
2022-12-08T06:05:05.824Z,87.90
2022-12-08T06:08:10.221Z,88.00
2022-12-08T06:11:23.109Z,88.00
2022-12-08T06:14:28.880Z,88.00
2022-12-08T06:17:32.709Z,88.00
2022-12-08T06:20:36.313Z,88.00
2022-12-08T06:23:40.779Z,88.00
2022-12-08T06:26:46.283Z,87.90
2022-12-08T06:29:51.963Z,88.00
2022-12-08T06:32:55.767Z,88.00
2022-12-08T06:36:00.019Z,88.00
2022-12-08T06:39:03.955Z,88.10
2022-12-08T06:42:21.036Z,87.90
2022-12-08T06:45:26.731Z,87.90
2022-12-08T06:48:33.580Z,87.90
2022-12-08T06:51:37.501Z,88.00
2022-12-08T06:54:41.558Z,88.00
2022-12-08T06:57:45.642Z,88.00
2022-12-08T07:00:51.246Z,88.00
2022-12-08T07:03:55.078Z,88.10
2022-12-08T07:06:58.959Z,87.90
2022-12-08T07:10:03.157Z,88.00
2022-12-08T07:13:06.900Z,88.00
2022-12-08T07:16:13.716Z,87.90
2022-12-08T07:19:17.627Z,88.00
2022-12-08T07:22:21.117Z,88.00
2022-12-08T07:25:24.890Z,88.00
2022-12-08T07:28:28.634Z,87.90
2022-12-08T07:31:34.489Z,87.90
2022-12-08T07:34:38.395Z,88.00
2022-12-08T07:37:41.949Z,88.00
2022-12-08T07:40:45.886Z,88.10
2022-12-08T07:43:49.478Z,87.90
2022-12-08T07:46:55.078Z,88.00
2022-12-08T07:49:58.894Z,88.00
2022-12-08T07:53:02.599Z,88.00
2022-12-08T07:56:08.024Z,88.00
2022-12-08T07:59:11.799Z,87.90
2022-12-08T08:02:24.828Z,87.90
2022-12-08T08:05:29.528Z,88.00
2022-12-08T08:08:33.682Z,87.80
2022-12-08T08:11:37.593Z,87.90
2022-12-08T08:14:41.086Z,88.00
2022-12-08T08:17:46.730Z,88.00
2022-12-08T08:20:51.536Z,88.00
2022-12-08T08:23:55.370Z,88.00
2022-12-08T08:26:59.260Z,88.00
2022-12-08T08:30:03.432Z,88.00
2022-12-08T08:33:09.512Z,88.00
2022-12-08T08:36:13.548Z,88.00
2022-12-08T08:39:17.372Z,88.00
2022-12-08T08:42:21.204Z,88.00
2022-12-08T08:45:25.144Z,88.00
2022-12-08T08:48:31.030Z,88.00
2022-12-08T08:51:35.258Z,88.00
2022-12-08T08:54:39.161Z,88.00
2022-12-08T08:57:42.967Z,88.00
2022-12-08T09:00:46.571Z,88.00
2022-12-08T09:03:52.847Z,88.10
2022-12-08T09:06:56.604Z,88.00
2022-12-08T09:10:02.069Z,88.00
2022-12-08T09:13:06.605Z,88.10
2022-12-08T09:16:10.367Z,88.10
2022-12-08T09:19:16.333Z,88.10
2022-12-08T09:22:20.130Z,88.00
2022-12-08T09:25:23.637Z,88.00
2022-12-08T09:28:27.464Z,88.10
2022-12-08T09:31:31.227Z,88.00
2022-12-08T09:34:36.987Z,88.00
2022-12-08T09:37:40.762Z,87.90
2022-12-08T09:40:49.842Z,88.00
2022-12-08T09:44:04.066Z,88.00
2022-12-08T09:47:17.688Z,87.90
2022-12-08T09:50:32.267Z,88.00
2022-12-08T09:53:39.127Z,88.00
2022-12-08T09:56:43.082Z,88.00
2022-12-08T09:59:49.371Z,88.10
2022-12-08T10:02:53.335Z,88.00
2022-12-08T10:06:05.672Z,87.90
2022-12-08T10:09:24.933Z,88.00
2022-12-08T10:12:37.423Z,88.00
2022-12-08T10:15:48.359Z,88.10
2022-12-08T10:18:58.243Z,88.10
2022-12-08T10:22:15.180Z,88.00
2022-12-08T10:25:21.591Z,88.10
2022-12-08T10:28:25.390Z,88.10
2022-12-08T10:31:29.232Z,88.10
2022-12-08T10:34:33.048Z,88.10
2022-12-08T10:37:38.618Z,88.00
2022-12-08T10:40:45.879Z,88.00
2022-12-08T10:43:52.098Z,87.90
2022-12-08T10:46:56.311Z,88.00
2022-12-08T10:50:18.841Z,88.00
2022-12-08T10:53:26.913Z,88.00
2022-12-08T10:56:32.376Z,88.00
2022-12-08T10:59:36.250Z,88.10
2022-12-08T11:02:51.233Z,88.00
2022-12-08T11:05:58.925Z,88.00
2022-12-08T11:09:08.114Z,88.20
2022-12-08T11:12:16.422Z,87.90
2022-12-08T11:15:20.744Z,87.90
2022-12-08T11:18:29.191Z,87.90
2022-12-08T11:21:37.607Z,87.90
2022-12-08T11:25:10.065Z,87.90
2022-12-08T11:28:13.905Z,87.80
2022-12-08T11:31:23.209Z,87.80
2022-12-08T11:34:35.277Z,87.90
2022-12-08T11:37:42.209Z,87.80
2022-12-08T11:40:48.101Z,87.80
2022-12-08T11:43:57.365Z,87.80
2022-12-08T11:47:07.359Z,87.80
2022-12-08T11:50:22.230Z,87.80
2022-12-08T11:53:32.110Z,87.80
2022-12-08T11:56:40.434Z,87.80
2022-12-08T11:59:48.934Z,87.80
2022-12-08T12:02:58.139Z,87.90
2022-12-08T12:10:27.554Z,87.80
2022-12-08T12:13:47.231Z,87.90
2022-12-08T12:17:01.745Z,87.80
2022-12-08T12:20:13.649Z,87.80
2022-12-08T12:23:22.479Z,88.00
2022-12-08T12:26:29.598Z,87.90
2022-12-08T12:29:37.917Z,87.90
2022-12-08T12:32:46.061Z,87.80
2022-12-08T12:35:50.732Z,87.80
2022-12-08T12:39:03.673Z,87.80
2022-12-08T12:42:07.501Z,87.80
2022-12-08T12:45:27.866Z,87.90
2022-12-08T12:48:31.723Z,87.80
2022-12-08T12:51:45.830Z,87.70
2022-12-08T12:55:30.656Z,87.70
2022-12-08T12:58:42.951Z,87.60
2022-12-08T13:01:56.575Z,87.60
2022-12-08T13:05:04.585Z,87.60
2022-12-08T13:08:18.276Z,87.60
2022-12-08T13:11:23.815Z,87.60
2022-12-08T13:14:39.148Z,87.70
2022-12-08T13:17:48.011Z,87.60
2022-12-08T13:20:55.620Z,87.50
2022-12-08T13:24:17.071Z,87.50
2022-12-08T13:27:35.442Z,87.40
2022-12-08T13:30:44.835Z,87.40
2022-12-08T13:33:50.645Z,87.40
2022-12-08T13:37:03.614Z,87.30
2022-12-08T13:40:11.854Z,87.20
2022-12-08T13:43:21.541Z,87.20
2022-12-08T13:54:16.341Z,87.20
2022-12-08T13:57:08.430Z,87.20
2022-12-08T14:00:21.701Z,87.10
2022-12-08T14:03:25.715Z,87.20
2022-12-08T14:06:32.831Z,87.10
2022-12-08T14:09:38.286Z,87.10
2022-12-08T14:12:45.429Z,87.10
2022-12-08T14:15:49.588Z,87.10
2022-12-08T14:18:53.313Z,87.20
2022-12-08T14:22:02.143Z,87.10
2022-12-08T14:25:08.334Z,87.20
2022-12-08T14:28:13.150Z,87.20
2022-12-08T14:31:19.104Z,87.10
2022-12-08T14:34:22.989Z,87.20
2022-12-08T14:37:32.510Z,87.20
2022-12-08T14:40:38.184Z,87.20
2022-12-08T14:43:42.503Z,87.20
2022-12-08T14:47:06.984Z,87.20
2022-12-08T14:50:38.112Z,87.20
2022-12-08T14:53:46.501Z,87.20
2022-12-08T14:56:53.680Z,87.20
2022-12-08T14:59:57.584Z,87.20
2022-12-08T15:03:07.209Z,87.10
2022-12-08T15:06:11.588Z,87.10
2022-12-08T15:09:32.773Z,87.10
2022-12-08T15:12:36.781Z,87.10
2022-12-08T15:15:51.397Z,87.10
2022-12-08T15:19:04.771Z,87.10
2022-12-08T15:22:14.940Z,87.10
2022-12-08T15:25:20.829Z,87.10
2022-12-08T15:28:29.677Z,87.20
2022-12-08T15:31:34.012Z,87.20
2022-12-08T15:34:37.929Z,87.20
2022-12-08T15:37:42.007Z,87.20
2022-12-08T15:40:47.749Z,87.10
2022-12-08T15:43:51.562Z,87.10
2022-12-08T15:46:55.361Z,87.10
2022-12-08T15:49:59.203Z,87.20
2022-12-08T15:53:03.172Z,87.20
2022-12-08T15:59:33.810Z,87.30
2022-12-08T16:03:05.018Z,87.20
2022-12-08T16:06:50.767Z,87.20
2022-12-08T16:09:34.047Z,87.30
2022-12-08T16:16:20.879Z,87.30
2022-12-08T16:19:25.083Z,87.30
2022-12-08T16:26:20.304Z,87.30
2022-12-08T16:29:22.351Z,87.20
2022-12-08T16:32:27.600Z,87.20
2022-12-08T16:35:32.464Z,87.20
2022-12-08T16:38:37.362Z,87.20
2022-12-08T16:41:54.259Z,87.30
2022-12-08T16:45:00.079Z,87.30
2022-12-08T16:48:03.930Z,87.30
2022-12-08T16:51:09.709Z,87.30
2022-12-08T16:54:13.443Z,87.30
2022-12-08T16:57:17.240Z,87.30
2022-12-08T17:00:25.844Z,87.30
2022-12-08T17:03:29.726Z,87.30
2022-12-08T17:06:33.206Z,87.20
2022-12-08T17:09:36.989Z,87.20
2022-12-08T17:12:40.682Z,87.30
2022-12-08T17:15:46.301Z,87.20
2022-12-08T17:18:50.243Z,87.10
2022-12-08T17:21:54.002Z,87.10
2022-12-08T17:24:57.823Z,87.20
2022-12-08T17:28:01.721Z,87.10
2022-12-08T17:31:11.849Z,87.10
2022-12-08T17:34:16.129Z,87.20
2022-12-08T17:37:20.535Z,87.10
2022-12-08T17:40:28.094Z,87.10
2022-12-08T17:43:32.383Z,87.20
2022-12-08T17:46:42.063Z,87.10
2022-12-08T17:49:47.434Z,87.20
2022-12-08T17:52:51.841Z,87.30
2022-12-08T17:55:57.696Z,87.20
2022-12-08T17:59:03.678Z,87.20
2022-12-08T18:02:12.399Z,87.20
2022-12-08T18:05:16.161Z,87.20
2022-12-08T18:08:19.747Z,87.20
2022-12-08T18:11:23.536Z,87.20
2022-12-08T18:14:27.863Z,87.20
2022-12-08T18:17:33.565Z,87.20
2022-12-08T18:20:38.791Z,87.20
2022-12-08T18:23:43.957Z,87.20
2022-12-08T18:26:48.131Z,87.20
2022-12-08T18:29:51.872Z,87.20
2022-12-08T18:32:57.790Z,87.20
2022-12-08T18:36:01.585Z,87.20
2022-12-08T18:39:10.548Z,87.20
2022-12-08T18:42:27.668Z,87.10
2022-12-08T18:45:31.687Z,87.10
2022-12-08T18:48:38.725Z,87.10
2022-12-08T18:51:42.884Z,87.10
2022-12-08T18:58:10.737Z,87.20
2022-12-08T19:01:15.780Z,87.10
2022-12-08T19:04:29.383Z,87.10
2022-12-08T19:07:33.611Z,87.10
2022-12-08T19:10:39.457Z,87.00
2022-12-08T19:13:43.226Z,87.00
2022-12-08T19:16:46.716Z,87.10
2022-12-08T19:19:52.337Z,87.00
2022-12-08T19:22:56.424Z,87.00
2022-12-08T19:26:00.429Z,87.00
2022-12-08T19:29:04.163Z,87.00
2022-12-08T19:32:07.930Z,87.00
2022-12-08T19:35:13.644Z,87.10
2022-12-08T19:38:17.530Z,87.10
2022-12-08T19:41:34.715Z,87.00
2022-12-08T19:44:51.627Z,87.00
2022-12-08T19:47:55.565Z,87.00
2022-12-08T19:51:01.088Z,87.00
2022-12-08T19:54:05.141Z,86.90
2022-12-08T19:57:09.556Z,86.90
2022-12-08T20:00:14.429Z,86.90
2022-12-08T20:03:18.782Z,87.00
2022-12-08T20:06:26.111Z,86.90
2022-12-08T20:09:30.017Z,87.00
2022-12-08T20:12:33.803Z,86.90
2022-12-08T20:15:37.550Z,87.00
2022-12-08T20:18:41.984Z,86.90
2022-12-08T20:21:48.219Z,87.00
2022-12-08T20:25:12.400Z,86.90
2022-12-08T20:28:18.365Z,86.90
2022-12-08T20:31:24.571Z,86.90
2022-12-08T20:34:29.706Z,86.90
2022-12-08T20:37:35.465Z,86.90
2022-12-08T20:40:43.103Z,86.90
2022-12-08T20:43:48.415Z,87.00
2022-12-08T20:46:52.188Z,86.90
2022-12-08T20:49:55.773Z,86.90
2022-12-08T20:53:01.561Z,86.90
2022-12-08T20:56:05.499Z,87.50
2022-12-08T20:59:09.411Z,86.80
2022-12-08T21:02:13.448Z,86.80
2022-12-08T21:05:17.785Z,86.70
2022-12-08T21:08:25.452Z,86.70
2022-12-08T21:11:29.265Z,86.70
2022-12-08T21:14:33.014Z,86.70
2022-12-08T21:17:36.860Z,86.70
2022-12-08T21:20:41.055Z,86.70
2022-12-08T21:23:46.612Z,86.70
2022-12-08T21:26:50.503Z,86.80
2022-12-08T21:29:54.113Z,86.70
2022-12-08T21:32:57.983Z,86.70
2022-12-08T21:36:07.220Z,86.70
2022-12-08T21:39:13.143Z,86.80
2022-12-08T21:42:34.042Z,86.80
2022-12-08T21:45:38.385Z,86.80
2022-12-08T21:48:42.128Z,86.90
2022-12-08T21:51:46.507Z,86.70
2022-12-08T21:54:52.403Z,86.70
2022-12-08T21:57:56.543Z,86.70
2022-12-08T22:01:06.775Z,86.70
2022-12-08T22:04:11.604Z,86.70
2022-12-08T22:07:15.662Z,86.70
2022-12-08T22:10:22.811Z,86.80
2022-12-08T22:13:26.636Z,86.80
2022-12-08T22:16:30.325Z,86.70
2022-12-08T22:19:34.454Z,86.80
2022-12-08T22:22:38.465Z,86.80
2022-12-08T22:25:44.182Z,86.80
2022-12-08T22:28:48.351Z,86.70
2022-12-08T22:31:52.331Z,86.70
2022-12-08T22:34:56.275Z,86.70
2022-12-08T22:37:59.876Z,86.70
2022-12-08T22:41:08.385Z,86.70
2022-12-08T22:44:15.148Z,86.60
2022-12-08T22:47:18.991Z,86.60
2022-12-08T22:50:22.995Z,86.60
2022-12-08T22:53:27.088Z,86.60
2022-12-08T22:56:32.767Z,86.60
2022-12-08T22:59:40.060Z,86.60
2022-12-08T23:02:44.082Z,86.60
2022-12-08T23:05:47.950Z,86.50
2022-12-08T23:08:52.299Z,86.60
2022-12-08T23:11:58.227Z,86.50
2022-12-08T23:15:02.516Z,86.50
2022-12-08T23:18:07.924Z,87.10
2022-12-08T23:21:14.826Z,86.50
2022-12-08T23:24:18.542Z,86.60
2022-12-08T23:27:24.252Z,86.60
2022-12-08T23:30:28.433Z,86.60
2022-12-08T23:33:32.588Z,86.60
2022-12-08T23:36:36.712Z,86.60
2022-12-08T23:39:40.735Z,86.60
2022-12-08T23:42:46.859Z,86.60
2022-12-08T23:45:50.696Z,86.50
2022-12-08T23:48:54.492Z,86.50
2022-12-08T23:51:58.208Z,86.60
2022-12-08T23:55:01.986Z,86.60
2022-12-08T23:58:07.808Z,86.50
